sensor_id;sensor_type;location;lat;lon;timestamp;pressure;altitude;pressure_sealevel;temperature;humidity
19594;BME280;9944;48.240;16.478;2022-07-05T00:00:18;99733.31;;;23.82;68.52
19594;BME280;9944;48.240;16.478;2022-07-05T00:04:22;99731.81;;;23.75;68.52
19594;BME280;9944;48.240;16.478;2022-07-05T00:08:25;99732.16;;;23.68;69.08
19594;BME280;9944;48.240;16.478;2022-07-05T00:12:30;99714.47;;;23.64;69.24
19594;BME280;9944;48.240;16.478;2022-07-05T00:16:35;99706.94;;;23.54;69.62
19594;BME280;9944;48.240;16.478;2022-07-05T00:20:39;99704.66;;;23.46;69.72
19594;BME280;9944;48.240;16.478;2022-07-05T00:24:43;99704.66;;;23.46;69.87
19594;BME280;9944;48.240;16.478;2022-07-05T00:28:47;99693.91;;;23.46;69.81
19594;BME280;9944;48.240;16.478;2022-07-05T00:32:52;99684.88;;;23.47;70.00
19594;BME280;9944;48.240;16.478;2022-07-05T00:36:56;99691.28;;;23.44;69.56
19594;BME280;9944;48.240;16.478;2022-07-05T00:40:59;99690.56;;;23.41;69.91
19594;BME280;9944;48.240;16.478;2022-07-05T00:45:03;99685.28;;;23.39;69.76
19594;BME280;9944;48.240;16.478;2022-07-05T00:49:08;99689.00;;;23.37;70.23
19594;BME280;9944;48.240;16.478;2022-07-05T00:53:11;99680.31;;;23.31;70.28
19594;BME280;9944;48.240;16.478;2022-07-05T00:57:15;99695.78;;;23.26;70.17
19594;BME280;9944;48.240;16.478;2022-07-05T01:01:19;99701.38;;;23.22;70.45
19594;BME280;9944;48.240;16.478;2022-07-05T01:05:24;99697.81;;;23.21;70.45
19594;BME280;9944;48.240;16.478;2022-07-05T01:09:27;99693.38;;;23.20;71.25
19594;BME280;9944;48.240;16.478;2022-07-05T01:13:32;99691.47;;;23.22;71.08
19594;BME280;9944;48.240;16.478;2022-07-05T01:17:36;99697.75;;;23.23;70.97
19594;BME280;9944;48.240;16.478;2022-07-05T01:21:42;99708.56;;;23.21;71.16
19594;BME280;9944;48.240;16.478;2022-07-05T01:25:47;99710.44;;;23.19;71.38
19594;BME280;9944;48.240;16.478;2022-07-05T01:29:50;99708.69;;;23.18;71.13
19594;BME280;9944;48.240;16.478;2022-07-05T01:33:54;99706.16;;;23.15;71.62
19594;BME280;9944;48.240;16.478;2022-07-05T01:37:57;99705.50;;;23.10;71.89
19594;BME280;9944;48.240;16.478;2022-07-05T01:42:02;99699.34;;;23.08;72.12
19594;BME280;9944;48.240;16.478;2022-07-05T01:46:08;99713.84;;;23.04;71.81
19594;BME280;9944;48.240;16.478;2022-07-05T01:50:13;99705.28;;;22.96;71.45
19594;BME280;9944;48.240;16.478;2022-07-05T01:54:19;99697.31;;;22.94;71.34
19594;BME280;9944;48.240;16.478;2022-07-05T01:58:24;99697.38;;;22.92;71.63
19594;BME280;9944;48.240;16.478;2022-07-05T02:02:28;99699.19;;;22.92;71.07
19594;BME280;9944;48.240;16.478;2022-07-05T02:06:32;99692.09;;;22.91;70.91
19594;BME280;9944;48.240;16.478;2022-07-05T02:10:36;99702.09;;;22.87;70.93
19594;BME280;9944;48.240;16.478;2022-07-05T02:14:42;99708.56;;;22.83;71.32
19594;BME280;9944;48.240;16.478;2022-07-05T02:18:50;99711.38;;;22.80;71.42
19594;BME280;9944;48.240;16.478;2022-07-05T02:22:54;99724.16;;;22.75;71.92
19594;BME280;9944;48.240;16.478;2022-07-05T02:26:58;99735.03;;;22.72;72.11
19594;BME280;9944;48.240;16.478;2022-07-05T02:31:02;99742.13;;;22.73;72.39
19594;BME280;9944;48.240;16.478;2022-07-05T02:35:07;99754.59;;;22.74;72.35
19594;BME280;9944;48.240;16.478;2022-07-05T02:39:11;99754.75;;;22.71;72.71
19594;BME280;9944;48.240;16.478;2022-07-05T02:43:14;99761.97;;;22.69;72.92
19594;BME280;9944;48.240;16.478;2022-07-05T02:47:21;99759.41;;;22.67;72.95
19594;BME280;9944;48.240;16.478;2022-07-05T02:51:25;99753.31;;;22.64;73.24
19594;BME280;9944;48.240;16.478;2022-07-05T02:55:30;99761.50;;;22.61;72.81
19594;BME280;9944;48.240;16.478;2022-07-05T02:59:33;99760.69;;;22.59;73.37
19594;BME280;9944;48.240;16.478;2022-07-05T03:03:38;99755.47;;;22.55;73.19
19594;BME280;9944;48.240;16.478;2022-07-05T03:07:43;99752.00;;;22.53;73.15
19594;BME280;9944;48.240;16.478;2022-07-05T03:11:46;99755.66;;;22.51;73.39
19594;BME280;9944;48.240;16.478;2022-07-05T03:15:50;99766.47;;;22.49;73.57
19594;BME280;9944;48.240;16.478;2022-07-05T03:19:58;99769.06;;;22.51;73.79
19594;BME280;9944;48.240;16.478;2022-07-05T03:24:03;99771.81;;;22.49;73.74
19594;BME280;9944;48.240;16.478;2022-07-05T03:28:06;99777.31;;;22.46;73.81
19594;BME280;9944;48.240;16.478;2022-07-05T03:32:12;99768.63;;;22.41;73.68
19594;BME280;9944;48.240;16.478;2022-07-05T03:36:17;99770.78;;;22.33;72.81
19594;BME280;9944;48.240;16.478;2022-07-05T03:40:22;99774.66;;;22.26;72.89
19594;BME280;9944;48.240;16.478;2022-07-05T03:44:26;99775.63;;;22.23;72.97
19594;BME280;9944;48.240;16.478;2022-07-05T03:48:30;99783.75;;;22.22;72.88
19594;BME280;9944;48.240;16.478;2022-07-05T03:52:45;99784.69;;;22.21;73.19
19594;BME280;9944;48.240;16.478;2022-07-05T03:56:49;99782.88;;;22.21;73.04
19594;BME280;9944;48.240;16.478;2022-07-05T04:00:52;99785.50;;;22.23;73.15
19594;BME280;9944;48.240;16.478;2022-07-05T04:04:59;99772.78;;;22.28;73.41
19594;BME280;9944;48.240;16.478;2022-07-05T04:09:04;99782.50;;;22.30;73.49
19594;BME280;9944;48.240;16.478;2022-07-05T04:13:08;99773.53;;;22.31;73.12
19594;BME280;9944;48.240;16.478;2022-07-05T04:17:12;99782.44;;;22.32;72.99
19594;BME280;9944;48.240;16.478;2022-07-05T04:21:15;99783.38;;;22.31;72.99
19594;BME280;9944;48.240;16.478;2022-07-05T04:25:20;99780.78;;;22.29;72.44
19594;BME280;9944;48.240;16.478;2022-07-05T04:29:34;99786.13;;;22.29;72.88
19594;BME280;9944;48.240;16.478;2022-07-05T04:33:38;99781.72;;;22.27;72.74
19594;BME280;9944;48.240;16.478;2022-07-05T04:37:42;99788.88;;;22.28;72.16
19594;BME280;9944;48.240;16.478;2022-07-05T04:41:47;99791.56;;;22.28;72.40
19594;BME280;9944;48.240;16.478;2022-07-05T04:45:50;99797.59;;;22.33;72.46
19594;BME280;9944;48.240;16.478;2022-07-05T04:49:59;99802.84;;;22.36;72.19
19594;BME280;9944;48.240;16.478;2022-07-05T04:54:04;99799.91;;;22.41;72.13
19594;BME280;9944;48.240;16.478;2022-07-05T04:58:08;99802.28;;;22.48;72.03
19594;BME280;9944;48.240;16.478;2022-07-05T05:02:13;99808.50;;;22.49;71.76
19594;BME280;9944;48.240;16.478;2022-07-05T05:06:17;99805.88;;;22.47;71.32
19594;BME280;9944;48.240;16.478;2022-07-05T05:10:20;99810.31;;;22.48;71.24
19594;BME280;9944;48.240;16.478;2022-07-05T05:14:25;99806.69;;;22.49;71.22
19594;BME280;9944;48.240;16.478;2022-07-05T05:18:30;99810.31;;;22.48;70.82
19594;BME280;9944;48.240;16.478;2022-07-05T05:22:33;99814.88;;;22.46;71.01
19594;BME280;9944;48.240;16.478;2022-07-05T05:26:36;99813.88;;;22.49;71.09
19594;BME280;9944;48.240;16.478;2022-07-05T05:30:41;99815.53;;;22.51;71.01
19594;BME280;9944;48.240;16.478;2022-07-05T05:34:44;99815.41;;;22.54;70.60
19594;BME280;9944;48.240;16.478;2022-07-05T05:38:47;99812.72;;;22.54;70.36
19594;BME280;9944;48.240;16.478;2022-07-05T05:42:53;99818.38;;;22.48;70.14
19594;BME280;9944;48.240;16.478;2022-07-05T05:46:59;99816.69;;;22.46;70.28
19594;BME280;9944;48.240;16.478;2022-07-05T05:51:02;99825.59;;;22.46;69.96
19594;BME280;9944;48.240;16.478;2022-07-05T05:55:07;99816.63;;;22.47;70.30
19594;BME280;9944;48.240;16.478;2022-07-05T05:59:10;99825.47;;;22.49;70.67
19594;BME280;9944;48.240;16.478;2022-07-05T06:03:15;99823.72;;;22.48;70.08
19594;BME280;9944;48.240;16.478;2022-07-05T06:07:18;99828.13;;;22.49;70.41
19594;BME280;9944;48.240;16.478;2022-07-05T06:11:22;99826.41;;;22.48;70.37
19594;BME280;9944;48.240;16.478;2022-07-05T06:15:25;99832.59;;;22.50;70.29
19594;BME280;9944;48.240;16.478;2022-07-05T06:19:30;99836.97;;;22.51;70.70
19594;BME280;9944;48.240;16.478;2022-07-05T06:23:33;99843.19;;;22.53;70.77
19594;BME280;9944;48.240;16.478;2022-07-05T06:27:39;99843.91;;;22.57;70.75
19594;BME280;9944;48.240;16.478;2022-07-05T06:31:43;99842.88;;;22.60;70.99
19594;BME280;9944;48.240;16.478;2022-07-05T06:35:48;99844.66;;;22.61;71.07
19594;BME280;9944;48.240;16.478;2022-07-05T06:39:51;99837.53;;;22.60;71.08
19594;BME280;9944;48.240;16.478;2022-07-05T06:43:54;99835.94;;;22.55;70.99
19594;BME280;9944;48.240;16.478;2022-07-05T06:48:17;99834.41;;;22.50;71.30
19594;BME280;9944;48.240;16.478;2022-07-05T06:52:22;99838.75;;;22.52;71.62
19594;BME280;9944;48.240;16.478;2022-07-05T06:56:25;99834.31;;;22.51;71.30
19594;BME280;9944;48.240;16.478;2022-07-05T07:00:29;99825.34;;;22.52;71.45
19594;BME280;9944;48.240;16.478;2022-07-05T07:04:53;99830.69;;;22.52;71.49
19594;BME280;9944;48.240;16.478;2022-07-05T07:09:16;99826.00;;;22.58;71.78
19594;BME280;9944;48.240;16.478;2022-07-05T07:13:23;99826.66;;;22.63;72.01
19594;BME280;9944;48.240;16.478;2022-07-05T07:17:26;99819.41;;;22.65;72.30
19594;BME280;9944;48.240;16.478;2022-07-05T07:21:30;99824.66;;;22.68;72.16
19594;BME280;9944;48.240;16.478;2022-07-05T07:25:35;99820.16;;;22.68;71.70
19594;BME280;9944;48.240;16.478;2022-07-05T07:29:39;99820.00;;;22.71;71.64
19594;BME280;9944;48.240;16.478;2022-07-05T07:33:43;99822.50;;;22.76;71.08
19594;BME280;9944;48.240;16.478;2022-07-05T07:37:46;99823.94;;;22.83;71.08
19594;BME280;9944;48.240;16.478;2022-07-05T07:41:51;99834.25;;;22.92;70.77
19594;BME280;9944;48.240;16.478;2022-07-05T07:45:54;99826.59;;;23.04;70.77
19594;BME280;9944;48.240;16.478;2022-07-05T07:49:59;99830.53;;;23.16;70.81
19594;BME280;9944;48.240;16.478;2022-07-05T07:54:02;99823.69;;;23.27;70.35
19594;BME280;9944;48.240;16.478;2022-07-05T07:58:18;99831.16;;;23.40;69.51
19594;BME280;9944;48.240;16.478;2022-07-05T08:02:22;99830.56;;;23.52;69.31
19594;BME280;9944;48.240;16.478;2022-07-05T08:06:25;99826.41;;;23.64;69.10
19594;BME280;9944;48.240;16.478;2022-07-05T08:10:29;99830.41;;;23.74;68.49
19594;BME280;9944;48.240;16.478;2022-07-05T08:14:33;99833.63;;;23.82;68.10
19594;BME280;9944;48.240;16.478;2022-07-05T08:18:38;99848.47;;;23.90;67.59
19594;BME280;9944;48.240;16.478;2022-07-05T08:22:55;99841.91;;;23.95;66.93
19594;BME280;9944;48.240;16.478;2022-07-05T08:26:58;99852.53;;;23.98;66.32
19594;BME280;9944;48.240;16.478;2022-07-05T08:31:03;99861.13;;;23.87;66.62
19594;BME280;9944;48.240;16.478;2022-07-05T08:35:07;99865.00;;;23.82;65.60
19594;BME280;9944;48.240;16.478;2022-07-05T08:39:10;99869.06;;;23.72;66.06
19594;BME280;9944;48.240;16.478;2022-07-05T08:43:14;99868.56;;;23.63;65.69
19594;BME280;9944;48.240;16.478;2022-07-05T08:47:19;99868.84;;;23.57;65.60
19594;BME280;9944;48.240;16.478;2022-07-05T08:51:23;99869.00;;;23.54;66.38
19594;BME280;9944;48.240;16.478;2022-07-05T08:55:26;99865.16;;;23.60;66.26
19594;BME280;9944;48.240;16.478;2022-07-05T08:59:30;99874.56;;;23.68;66.00
19594;BME280;9944;48.240;16.478;2022-07-05T09:03:38;99867.94;;;23.76;65.87
19594;BME280;9944;48.240;16.478;2022-07-05T09:07:46;99874.09;;;23.78;65.57
19594;BME280;9944;48.240;16.478;2022-07-05T09:11:51;99871.81;;;23.70;65.52
19594;BME280;9944;48.240;16.478;2022-07-05T09:16:14;99869.66;;;23.59;65.05
19594;BME280;9944;48.240;16.478;2022-07-05T09:20:20;99876.97;;;23.56;65.95
19594;BME280;9944;48.240;16.478;2022-07-05T09:24:23;99882.50;;;23.53;65.89
19594;BME280;9944;48.240;16.478;2022-07-05T09:28:26;99878.94;;;23.52;65.56
19594;BME280;9944;48.240;16.478;2022-07-05T09:32:29;99887.16;;;23.49;65.78
19594;BME280;9944;48.240;16.478;2022-07-05T09:36:49;99894.97;;;23.54;65.59
19594;BME280;9944;48.240;16.478;2022-07-05T09:40:54;99889.84;;;23.49;65.26
19594;BME280;9944;48.240;16.478;2022-07-05T09:44:58;99894.84;;;23.38;65.77
19594;BME280;9944;48.240;16.478;2022-07-05T09:49:01;99898.47;;;23.37;65.58
19594;BME280;9944;48.240;16.478;2022-07-05T09:53:06;99904.91;;;23.33;66.14
19594;BME280;9944;48.240;16.478;2022-07-05T09:57:09;99898.03;;;23.27;65.54
19594;BME280;9944;48.240;16.478;2022-07-05T10:01:25;99893.09;;;23.18;66.09
19594;BME280;9944;48.240;16.478;2022-07-05T10:05:29;99899.59;;;23.12;65.97
19594;BME280;9944;48.240;16.478;2022-07-05T10:09:35;99894.56;;;23.04;66.71
19594;BME280;9944;48.240;16.478;2022-07-05T10:13:41;99888.41;;;23.02;67.01
19594;BME280;9944;48.240;16.478;2022-07-05T10:17:46;99902.56;;;23.06;67.05
19594;BME280;9944;48.240;16.478;2022-07-05T10:21:50;99901.63;;;23.07;67.50
19594;BME280;9944;48.240;16.478;2022-07-05T10:26:16;99902.56;;;23.06;67.80
19594;BME280;9944;48.240;16.478;2022-07-05T10:30:20;99904.25;;;23.08;67.96
19594;BME280;9944;48.240;16.478;2022-07-05T10:34:24;99906.72;;;23.13;68.01
19594;BME280;9944;48.240;16.478;2022-07-05T10:38:48;99904.84;;;23.15;67.42
19594;BME280;9944;48.240;16.478;2022-07-05T10:42:55;99902.81;;;23.20;67.52
19594;BME280;9944;48.240;16.478;2022-07-05T10:47:07;99913.28;;;23.26;67.36
19594;BME280;9944;48.240;16.478;2022-07-05T10:51:15;99903.53;;;23.24;66.95
19594;BME280;9944;48.240;16.478;2022-07-05T10:55:20;99915.00;;;23.27;67.83
19594;BME280;9944;48.240;16.478;2022-07-05T10:59:26;99916.91;;;23.25;67.20
19594;BME280;9944;48.240;16.478;2022-07-05T11:03:38;99922.25;;;23.25;67.41
19594;BME280;9944;48.240;16.478;2022-07-05T11:07:58;99920.22;;;23.11;67.17
19594;BME280;9944;48.240;16.478;2022-07-05T11:12:04;99921.47;;;23.03;67.49
19594;BME280;9944;48.240;16.478;2022-07-05T11:16:31;99926.09;;;22.99;68.01
19594;BME280;9944;48.240;16.478;2022-07-05T11:20:35;99923.78;;;22.91;67.89
19594;BME280;9944;48.240;16.478;2022-07-05T11:24:39;99921.22;;;22.88;68.11
19594;BME280;9944;48.240;16.478;2022-07-05T11:28:43;99919.47;;;22.87;68.27
19594;BME280;9944;48.240;16.478;2022-07-05T11:32:48;99914.91;;;22.89;68.81
19594;BME280;9944;48.240;16.478;2022-07-05T11:37:18;99927.31;;;22.92;68.32
19594;BME280;9944;48.240;16.478;2022-07-05T11:41:30;99919.16;;;22.95;68.52
19594;BME280;9944;48.240;16.478;2022-07-05T11:45:34;99909.13;;;22.99;68.01
19594;BME280;9944;48.240;16.478;2022-07-05T11:49:43;99922.25;;;23.05;68.01
19594;BME280;9944;48.240;16.478;2022-07-05T11:53:56;99904.31;;;23.07;68.06
19594;BME280;9944;48.240;16.478;2022-07-05T11:58:19;99911.53;;;23.05;67.87
19594;BME280;9944;48.240;16.478;2022-07-05T12:02:22;99903.47;;;23.05;67.90
19594;BME280;9944;48.240;16.478;2022-07-05T12:06:27;99904.91;;;23.13;67.87
19594;BME280;9944;48.240;16.478;2022-07-05T12:10:30;99902.94;;;23.17;67.24
19594;BME280;9944;48.240;16.478;2022-07-05T12:15:12;99891.88;;;23.25;67.59
19594;BME280;9944;48.240;16.478;2022-07-05T12:19:23;99888.66;;;23.36;66.88
19594;BME280;9944;48.240;16.478;2022-07-05T12:23:28;99896.28;;;23.45;67.21
19594;BME280;9944;48.240;16.478;2022-07-05T12:27:33;99905.00;;;23.50;67.12
19594;BME280;9944;48.240;16.478;2022-07-05T12:31:37;99900.59;;;23.49;67.28
19594;BME280;9944;48.240;16.478;2022-07-05T12:35:41;99895.94;;;23.53;67.67
19594;BME280;9944;48.240;16.478;2022-07-05T12:39:46;99890.41;;;23.56;67.08
19594;BME280;9944;48.240;16.478;2022-07-05T12:43:51;99898.56;;;23.54;67.47
19594;BME280;9944;48.240;16.478;2022-07-05T12:47:55;99897.59;;;23.55;67.44
19594;BME280;9944;48.240;16.478;2022-07-05T12:52:03;99901.66;;;23.64;67.42
19594;BME280;9944;48.240;16.478;2022-07-05T12:56:11;99889.84;;;23.68;67.58
19594;BME280;9944;48.240;16.478;2022-07-05T13:00:32;99881.84;;;23.66;66.95
19594;BME280;9944;48.240;16.478;2022-07-05T13:04:35;99875.97;;;23.58;67.10
19594;BME280;9944;48.240;16.478;2022-07-05T13:08:43;99879.75;;;23.54;67.40
19594;BME280;9944;48.240;16.478;2022-07-05T13:12:48;99879.28;;;23.63;67.26
19594;BME280;9944;48.240;16.478;2022-07-05T13:16:52;99882.31;;;23.75;67.32
19594;BME280;9944;48.240;16.478;2022-07-05T13:20:55;99890.63;;;23.89;67.54
19594;BME280;9944;48.240;16.478;2022-07-05T13:24:59;99883.78;;;24.01;67.56
19594;BME280;9944;48.240;16.478;2022-07-05T13:29:03;99881.63;;;24.08;67.39
19594;BME280;9944;48.240;16.478;2022-07-05T13:33:06;99882.13;;;24.16;67.35
19594;BME280;9944;48.240;16.478;2022-07-05T13:37:10;99890.69;;;24.24;66.21
19594;BME280;9944;48.240;16.478;2022-07-05T13:41:13;99885.59;;;24.18;66.18
19594;BME280;9944;48.240;16.478;2022-07-05T13:45:17;99876.88;;;24.13;66.99
19594;BME280;9944;48.240;16.478;2022-07-05T13:49:24;99884.16;;;24.11;66.52
19594;BME280;9944;48.240;16.478;2022-07-05T13:53:27;99879.97;;;24.05;66.95
19594;BME280;9944;48.240;16.478;2022-07-05T13:57:30;99878.94;;;24.08;66.89
19594;BME280;9944;48.240;16.478;2022-07-05T14:01:35;99881.56;;;24.09;66.92
19594;BME280;9944;48.240;16.478;2022-07-05T14:05:38;99892.03;;;24.15;66.92
19594;BME280;9944;48.240;16.478;2022-07-05T14:09:41;99889.53;;;24.11;67.07
19594;BME280;9944;48.240;16.478;2022-07-05T14:13:45;99894.13;;;24.09;67.04
19594;BME280;9944;48.240;16.478;2022-07-05T14:17:50;99892.56;;;24.04;66.71
19594;BME280;9944;48.240;16.478;2022-07-05T14:21:53;99886.22;;;24.05;66.87
19594;BME280;9944;48.240;16.478;2022-07-05T14:25:57;99877.94;;;24.10;66.58
19594;BME280;9944;48.240;16.478;2022-07-05T14:30:01;99881.56;;;24.09;67.30
19594;BME280;9944;48.240;16.478;2022-07-05T14:34:06;99877.94;;;24.10;67.12
19594;BME280;9944;48.240;16.478;2022-07-05T14:38:09;99878.16;;;24.05;66.63
19594;BME280;9944;48.240;16.478;2022-07-05T14:42:12;99874.81;;;24.00;66.45
19594;BME280;9944;48.240;16.478;2022-07-05T14:46:16;99862.28;;;24.01;66.61
19594;BME280;9944;48.240;16.478;2022-07-05T14:50:22;99865.81;;;24.01;66.31
19594;BME280;9944;48.240;16.478;2022-07-05T14:54:26;99868.50;;;24.01;66.05
19594;BME280;9944;48.240;16.478;2022-07-05T14:58:29;99864.00;;;24.02;66.17
19594;BME280;9944;48.240;16.478;2022-07-05T15:02:34;99878.16;;;24.05;66.47
19594;BME280;9944;48.240;16.478;2022-07-05T15:06:38;99867.31;;;24.07;66.18
19594;BME280;9944;48.240;16.478;2022-07-05T15:10:43;99873.19;;;24.15;65.80
19594;BME280;9944;48.240;16.478;2022-07-05T15:14:46;99866.78;;;24.18;66.23
19594;BME280;9944;48.240;16.478;2022-07-05T15:18:49;99869.31;;;24.21;66.26
19594;BME280;9944;48.240;16.478;2022-07-05T15:22:56;99876.25;;;24.25;66.18
19594;BME280;9944;48.240;16.478;2022-07-05T15:27:00;99859.81;;;24.31;65.63
19594;BME280;9944;48.240;16.478;2022-07-05T15:31:19;99866.78;;;24.35;64.94
19594;BME280;9944;48.240;16.478;2022-07-05T15:35:22;99862.28;;;24.36;64.85
19594;BME280;9944;48.240;16.478;2022-07-05T15:39:26;99871.84;;;24.41;64.86
19594;BME280;9944;48.240;16.478;2022-07-05T15:43:30;99873.91;;;24.36;64.31
19594;BME280;9944;48.240;16.478;2022-07-05T15:47:33;99857.91;;;24.33;64.14
19594;BME280;9944;48.240;16.478;2022-07-05T15:51:39;99857.63;;;24.39;64.07
19594;BME280;9944;48.240;16.478;2022-07-05T15:55:43;99857.63;;;24.39;64.83
19594;BME280;9944;48.240;16.478;2022-07-05T15:59:46;99854.75;;;24.42;64.54
19594;BME280;9944;48.240;16.478;2022-07-05T16:03:49;99855.22;;;24.51;63.81
19594;BME280;9944;48.240;16.478;2022-07-05T16:07:53;99851.75;;;24.49;64.01
19594;BME280;9944;48.240;16.478;2022-07-05T16:11:57;99840.13;;;24.48;64.03
19594;BME280;9944;48.240;16.478;2022-07-05T16:16:00;99845.44;;;24.50;63.71
19594;BME280;9944;48.240;16.478;2022-07-05T16:20:17;99854.50;;;24.47;63.49
19594;BME280;9944;48.240;16.478;2022-07-05T16:24:20;99861.94;;;24.42;63.91
19594;BME280;9944;48.240;16.478;2022-07-05T16:28:25;99847.78;;;24.38;64.17
19594;BME280;9944;48.240;16.478;2022-07-05T16:32:28;99843.38;;;24.37;64.04
19594;BME280;9944;48.240;16.478;2022-07-05T16:36:32;99843.53;;;24.34;64.55
19594;BME280;9944;48.240;16.478;2022-07-05T16:40:35;99841.78;;;24.33;64.44
19594;BME280;9944;48.240;16.478;2022-07-05T16:44:39;99851.69;;;24.33;64.44
19594;BME280;9944;48.240;16.478;2022-07-05T16:48:44;99850.72;;;24.34;64.71
19594;BME280;9944;48.240;16.478;2022-07-05T16:52:49;99861.94;;;24.42;64.91
19594;BME280;9944;48.240;16.478;2022-07-05T16:56:52;99865.28;;;24.47;64.70
19594;BME280;9944;48.240;16.478;2022-07-05T17:01:02;99865.13;;;24.50;64.26
19594;BME280;9944;48.240;16.478;2022-07-05T17:05:06;99868.75;;;24.49;64.16
19594;BME280;9944;48.240;16.478;2022-07-05T17:09:10;99866.94;;;24.50;63.74
19594;BME280;9944;48.240;16.478;2022-07-05T17:13:14;99866.00;;;24.51;63.44
19594;BME280;9944;48.240;16.478;2022-07-05T17:17:20;99875.03;;;24.50;63.45
19594;BME280;9944;48.240;16.478;2022-07-05T17:21:23;99878.81;;;24.46;63.01
19594;BME280;9944;48.240;16.478;2022-07-05T17:25:27;99890.97;;;24.35;61.62
19594;BME280;9944;48.240;16.478;2022-07-05T17:29:30;99882.53;;;24.25;61.54
19594;BME280;9944;48.240;16.478;2022-07-05T17:33:36;99889.25;;;24.17;61.56
19594;BME280;9944;48.240;16.478;2022-07-05T17:37:40;99899.13;;;24.16;61.79
19594;BME280;9944;48.240;16.478;2022-07-05T17:41:43;99900.00;;;24.17;61.62
19594;BME280;9944;48.240;16.478;2022-07-05T17:45:46;99902.53;;;24.20;61.88
19594;BME280;9944;48.240;16.478;2022-07-05T17:49:51;99905.22;;;24.20;62.19
19594;BME280;9944;48.240;16.478;2022-07-05T17:53:54;99909.00;;;24.16;62.00
19594;BME280;9944;48.240;16.478;2022-07-05T17:57:57;99911.91;;;24.11;62.33
19594;BME280;9944;48.240;16.478;2022-07-05T18:02:01;99911.91;;;24.11;61.92
19594;BME280;9944;48.240;16.478;2022-07-05T18:06:06;99910.41;;;24.05;61.39
19594;BME280;9944;48.240;16.478;2022-07-05T18:10:09;99917.84;;;24.00;61.23
19594;BME280;9944;48.240;16.478;2022-07-05T18:14:12;99913.84;;;23.90;61.01
19594;BME280;9944;48.240;16.478;2022-07-05T18:18:16;99918.50;;;23.86;61.74
19594;BME280;9944;48.240;16.478;2022-07-05T18:22:20;99923.16;;;23.83;61.60
19594;BME280;9944;48.240;16.478;2022-07-05T18:26:24;99932.22;;;23.80;61.71
19594;BME280;9944;48.240;16.478;2022-07-05T18:30:47;99937.81;;;23.76;61.32
19594;BME280;9944;48.240;16.478;2022-07-05T18:34:51;99941.88;;;23.65;61.49
19594;BME280;9944;48.240;16.478;2022-07-05T18:38:56;99935.94;;;23.59;61.21
19594;BME280;9944;48.240;16.478;2022-07-05T18:43:02;99947.78;;;23.55;61.21
19594;BME280;9944;48.240;16.478;2022-07-05T18:47:05;99950.59;;;23.52;61.50
19594;BME280;9944;48.240;16.478;2022-07-05T18:51:09;99953.34;;;23.50;61.40
19594;BME280;9944;48.240;16.478;2022-07-05T18:55:14;99949.88;;;23.48;61.59
19594;BME280;9944;48.240;16.478;2022-07-05T18:59:17;99947.31;;;23.45;62.12
19594;BME280;9944;48.240;16.478;2022-07-05T19:03:20;99949.34;;;23.40;62.23
19594;BME280;9944;48.240;16.478;2022-07-05T19:07:24;99957.84;;;23.30;61.98
19594;BME280;9944;48.240;16.478;2022-07-05T19:11:46;99956.38;;;23.23;62.14
19594;BME280;9944;48.240;16.478;2022-07-05T19:16:07;99971.53;;;23.24;61.62
19594;BME280;9944;48.240;16.478;2022-07-05T19:20:11;99968.66;;;23.29;61.69
19594;BME280;9944;48.240;16.478;2022-07-05T19:24:34;99969.00;;;23.21;61.21
19594;BME280;9944;48.240;16.478;2022-07-05T19:28:39;99965.66;;;23.16;60.84
19594;BME280;9944;48.240;16.478;2022-07-05T19:32:42;99973.03;;;23.11;60.48
19594;BME280;9944;48.240;16.478;2022-07-05T19:36:45;99976.78;;;23.07;60.53
19594;BME280;9944;48.240;16.478;2022-07-05T19:40:48;99971.78;;;22.98;60.56
19594;BME280;9944;48.240;16.478;2022-07-05T19:44:53;99975.50;;;22.95;61.03
19594;BME280;9944;48.240;16.478;2022-07-05T19:48:56;99966.63;;;22.93;61.25
19594;BME280;9944;48.240;16.478;2022-07-05T19:57:25;99951.88;;;22.83;61.92
19594;BME280;9944;48.240;16.478;2022-07-05T20:01:30;99957.44;;;22.78;62.26
19594;BME280;9944;48.240;16.478;2022-07-05T20:05:35;99946.16;;;22.70;62.52
19594;BME280;9944;48.240;16.478;2022-07-05T20:09:38;99949.94;;;22.66;63.08
19594;BME280;9944;48.240;16.478;2022-07-05T20:13:41;99943.84;;;22.62;63.10
19594;BME280;9944;48.240;16.478;2022-07-05T20:17:46;99949.38;;;22.58;63.28
19594;BME280;9944;48.240;16.478;2022-07-05T20:21:50;99944.94;;;22.56;63.77
19594;BME280;9944;48.240;16.478;2022-07-05T20:25:54;99954.88;;;22.54;63.59
19594;BME280;9944;48.240;16.478;2022-07-05T20:29:57;99948.09;;;22.46;63.96
19594;BME280;9944;48.240;16.478;2022-07-05T20:34:02;99945.63;;;22.41;64.27
19594;BME280;9944;48.240;16.478;2022-07-05T20:38:05;99941.25;;;22.38;64.16
19594;BME280;9944;48.240;16.478;2022-07-05T20:42:08;99942.31;;;22.34;63.71
19594;BME280;9944;48.240;16.478;2022-07-05T20:46:11;99939.81;;;22.30;63.76
19594;BME280;9944;48.240;16.478;2022-07-05T20:50:24;99944.47;;;22.25;63.63
19594;BME280;9944;48.240;16.478;2022-07-05T20:54:27;99936.59;;;22.20;63.51
19594;BME280;9944;48.240;16.478;2022-07-05T20:58:31;99941.38;;;22.13;62.99
19594;BME280;9944;48.240;16.478;2022-07-05T21:02:34;99945.38;;;22.03;62.69
19594;BME280;9944;48.240;16.478;2022-07-05T21:06:39;99942.97;;;21.95;62.62
19594;BME280;9944;48.240;16.478;2022-07-05T21:10:42;99942.22;;;21.92;62.62
19594;BME280;9944;48.240;16.478;2022-07-05T21:14:46;99944.97;;;21.90;62.35
19594;BME280;9944;48.240;16.478;2022-07-05T21:18:50;99945.97;;;21.88;62.11
19594;BME280;9944;48.240;16.478;2022-07-05T21:22:55;99953.22;;;21.86;62.03
19594;BME280;9944;48.240;16.478;2022-07-05T21:26:58;99937.25;;;21.83;61.84
19594;BME280;9944;48.240;16.478;2022-07-05T21:31:01;99939.13;;;21.80;61.65
19594;BME280;9944;48.240;16.478;2022-07-05T21:35:05;99945.41;;;21.79;61.66
19594;BME280;9944;48.240;16.478;2022-07-05T21:39:10;99954.50;;;21.75;61.26
19594;BME280;9944;48.240;16.478;2022-07-05T21:43:14;99959.03;;;21.73;60.96